This is the latest recevied weather packets stored in our database for station/object W8DRH-13. If no packets are shown the sender has not sent any weather packets the latest 10 day(s).
| Time | Temp. | Humidity | Pressure | Rain* | Wind** | Luminosity | Snow |
|---|---|---|---|---|---|---|---|
| 1778189616 | 14.44° C | 51% | 1010.1 hPa | 0 mm | - | 395 W/m² | - |
| 1778189312 | 13.33° C | 50% | 1010.5 hPa | 0 mm | - | 403 W/m² | - |
| 1778189008 | 12.78° C | 50% | 1010.5 hPa | 0 mm | - | 438 W/m² | - |
| 1778188705 | 12.78° C | 51% | 1010.5 hPa | 0 mm | - | 131 W/m² | - |
| 1778188402 | 12.78° C | 52% | 1010.5 hPa | 0 mm | - | 102 W/m² | - |
| 1778188099 | 12.78° C | 50% | 1010.4 hPa | 0 mm | - | 96 W/m² | - |
| 1778187796 | 13.33° C | 50% | 1010.5 hPa | 0 mm | - | 98 W/m² | - |
| 1778187492 | 13.89° C | 47% | 1010.3 hPa | 0 mm | - | 115 W/m² | - |
| 1778187189 | 13.89° C | 47% | 1010.3 hPa | 0 mm | - | 526 W/m² | - |
| 1778186885 | 13.89° C | 50% | 1010.2 hPa | 0 mm | - | 322 W/m² | - |
| 1778186583 | 13.33° C | 48% | 1010.5 hPa | 0 mm | - | 601 W/m² | - |
| 1778186280 | 13.33° C | 53% | 1010.3 hPa | 0 mm | - | 228 W/m² | - |
| 1778185978 | 13.33° C | 49% | 1010.4 hPa | 0 mm | - | 170 W/m² | - |
| 1778185674 | 13.33° C | 47% | 1010.5 hPa | 0 mm | - | 642 W/m² | - |
| 1778185370 | 13.89° C | 48% | 1010.4 hPa | 0 mm | - | 119 W/m² | - |
| 1778185065 | 13.89° C | 51% | 1010.4 hPa | 0 mm | - | 699 W/m² | - |
| 1778184762 | 13.33° C | 49% | 1010.5 hPa | 0 mm | - | 688 W/m² | - |
| 1778184458 | 13.89° C | 47% | 1010.2 hPa | 0 mm | - | 658 W/m² | - |
| 1778184154 | 13.33° C | 49% | 1010.3 hPa | 0 mm | - | 688 W/m² | - |
| 1778183851 | 13.33° C | 47% | 1010.5 hPa | 0 mm | - | 656 W/m² | - |
| 1778183548 | 12.78° C | 54% | 1010.3 hPa | 0 mm | - | 161 W/m² | - |
| 1778183245 | 12.78° C | 54% | 1010.4 hPa | 0 mm | - | 161 W/m² | - |
| 1778182941 | 12.78° C | 54% | 1010.8 hPa | 0 mm | - | 133 W/m² | - |
| 1778182638 | 13.33° C | 50% | 1010.7 hPa | 0 mm | - | 157 W/m² | - |
| 1778182334 | 12.78° C | 52% | 1010.8 hPa | 0 mm | - | 772 W/m² | - |
* Rain latest hour (hover to see other rain measurements)
** Current wind speed in m/s (hover to see current wind gust speed)